createdAt,value
2023-02-22T00:02:25.487Z,19.30
2023-02-22T00:04:58.065Z,9.20
2023-02-22T00:07:30.314Z,8.10
2023-02-22T00:10:02.697Z,8.20
2023-02-22T00:12:35.561Z,7.40
2023-02-22T00:15:14.371Z,8.10
2023-02-22T00:17:46.806Z,8.90
2023-02-22T00:20:20.663Z,14.20
2023-02-22T00:22:53.510Z,10.70
2023-02-22T00:25:26.845Z,9.10
2023-02-22T00:27:59.207Z,7.70
2023-02-22T00:30:33.843Z,8.20
2023-02-22T00:33:07.204Z,6.90
2023-02-22T00:35:39.758Z,10.80
2023-02-22T00:38:12.797Z,9.60
2023-02-22T00:40:50.860Z,10.00
2023-02-22T00:43:27.032Z,7.70
2023-02-22T00:46:06.843Z,7.70
2023-02-22T00:48:47.784Z,7.10
2023-02-22T00:51:23.229Z,8.00
2023-02-22T00:53:58.487Z,6.60
2023-02-22T00:56:40.001Z,6.60
2023-02-22T00:59:12.552Z,5.80
2023-02-22T01:01:47.109Z,6.50
2023-02-22T01:04:19.594Z,6.20
2023-02-22T01:06:51.974Z,7.30
2023-02-22T01:09:24.654Z,7.70
2023-02-22T01:11:58.277Z,6.20
2023-02-22T01:14:31.311Z,8.50
2023-02-22T01:17:07.037Z,7.00
2023-02-22T01:19:42.603Z,8.60
2023-02-22T01:22:15.331Z,8.70
2023-02-22T01:24:53.449Z,8.40
2023-02-22T01:27:28.195Z,6.10
2023-02-22T01:30:00.789Z,8.40
2023-02-22T01:32:41.583Z,23.80
2023-02-22T01:35:20.745Z,19.60
2023-02-22T01:37:53.062Z,14.20
2023-02-22T01:40:28.354Z,9.80
2023-02-22T01:43:03.186Z,10.10
2023-02-22T01:45:50.994Z,13.90
2023-02-22T01:48:35.782Z,11.60
2023-02-22T01:51:16.133Z,12.40
2023-02-22T01:53:55.305Z,8.10
2023-02-22T01:56:31.488Z,9.40
2023-02-22T01:59:09.964Z,11.60
2023-02-22T02:01:45.613Z,11.80
2023-02-22T02:04:25.680Z,12.90
2023-02-22T02:07:04.503Z,11.90
2023-02-22T02:09:46.085Z,17.50
2023-02-22T02:12:23.739Z,11.00
2023-02-22T02:15:17.614Z,17.90
2023-02-22T02:17:56.674Z,36.60
2023-02-22T02:20:37.491Z,22.00
2023-02-22T02:23:30.082Z,12.80
2023-02-22T02:26:32.418Z,8.90
2023-02-22T02:29:32.042Z,9.00
2023-02-22T02:32:27.772Z,10.70
2023-02-22T02:35:05.657Z,10.70
2023-02-22T02:37:51.178Z,8.40
2023-02-22T02:40:28.343Z,9.00
2023-02-22T02:43:08.260Z,10.20
2023-02-22T02:45:48.978Z,9.90
2023-02-22T02:48:26.916Z,18.30
2023-02-22T02:51:02.261Z,37.30
2023-02-22T02:53:39.591Z,30.30
2023-02-22T02:56:11.880Z,37.50
2023-02-22T02:58:50.308Z,19.30
2023-02-22T03:01:45.144Z,12.40
2023-02-22T03:04:29.287Z,12.30
2023-02-22T03:07:18.457Z,17.90
2023-02-22T03:10:04.257Z,13.40
2023-02-22T03:12:46.943Z,15.90
2023-02-22T03:15:35.150Z,16.50
2023-02-22T03:18:23.007Z,13.50
2023-02-22T03:21:11.951Z,12.30
2023-02-22T03:23:49.949Z,11.20
2023-02-22T03:26:26.340Z,10.10
2023-02-22T03:29:05.372Z,9.20
2023-02-22T03:31:42.705Z,9.10
2023-02-22T03:34:20.470Z,8.50
2023-02-22T03:37:02.215Z,11.10
2023-02-22T03:39:37.659Z,11.50
2023-02-22T03:42:16.933Z,9.20
2023-02-22T03:44:53.495Z,11.20
2023-02-22T03:47:31.888Z,9.30
2023-02-22T03:50:10.716Z,8.60
2023-02-22T03:52:44.226Z,9.10
2023-02-22T03:55:21.671Z,11.00
2023-02-22T03:57:57.801Z,12.10
2023-02-22T04:00:34.097Z,9.90
2023-02-22T04:03:08.854Z,10.70
2023-02-22T04:05:41.305Z,9.30
2023-02-22T04:08:14.340Z,9.40
2023-02-22T04:10:46.973Z,14.70
2023-02-22T04:13:21.675Z,17.00
2023-02-22T04:15:59.948Z,13.60
2023-02-22T04:18:34.819Z,24.80
2023-02-22T04:21:09.199Z,23.40
2023-02-22T04:23:45.988Z,18.80
2023-02-22T04:26:32.144Z,19.10
2023-02-22T04:29:10.363Z,24.10
2023-02-22T04:31:45.203Z,29.20
2023-02-22T04:34:20.685Z,24.80
2023-02-22T04:36:54.357Z,27.60
2023-02-22T04:39:27.320Z,22.50
2023-02-22T04:41:59.822Z,32.00
2023-02-22T04:44:32.198Z,28.60
2023-02-22T04:47:04.695Z,26.10
2023-02-22T04:49:39.307Z,21.20
2023-02-22T04:52:11.946Z,12.00
2023-02-22T04:54:45.578Z,9.30
2023-02-22T04:57:17.918Z,12.30
2023-02-22T04:59:51.255Z,11.80
2023-02-22T05:02:24.273Z,15.10
2023-02-22T05:04:56.658Z,12.60
2023-02-22T05:07:29.086Z,12.70
2023-02-22T05:10:02.788Z,13.50
2023-02-22T05:12:36.154Z,12.00
2023-02-22T05:15:09.804Z,14.20
2023-02-22T05:17:45.530Z,13.00
2023-02-22T05:20:27.865Z,12.70
2023-02-22T05:23:02.058Z,13.80
2023-02-22T05:25:35.165Z,11.30
2023-02-22T05:28:13.041Z,11.50
2023-02-22T05:30:45.547Z,13.60
2023-02-22T05:33:17.992Z,12.30
2023-02-22T05:35:50.527Z,14.00
2023-02-22T05:38:23.694Z,12.50
2023-02-22T05:40:57.003Z,13.60
2023-02-22T05:43:29.363Z,13.80
2023-02-22T05:46:02.566Z,15.40
2023-02-22T05:48:35.080Z,15.90
2023-02-22T05:51:11.680Z,17.20
2023-02-22T05:53:48.278Z,17.00
2023-02-22T05:56:26.478Z,20.10
2023-02-22T05:58:59.840Z,23.60
2023-02-22T06:01:34.547Z,27.30
2023-02-22T06:04:07.871Z,20.40
2023-02-22T06:06:40.067Z,17.00
2023-02-22T06:09:12.330Z,19.70
2023-02-22T06:11:44.542Z,20.60
2023-02-22T06:14:16.845Z,20.30
2023-02-22T06:16:56.475Z,20.90
2023-02-22T06:19:29.004Z,18.30
2023-02-22T06:22:03.040Z,14.70
2023-02-22T06:24:39.387Z,18.70
2023-02-22T06:27:12.103Z,18.90
2023-02-22T06:29:47.752Z,20.50
2023-02-22T06:32:20.115Z,23.80
2023-02-22T06:34:52.597Z,21.60
2023-02-22T06:37:25.464Z,22.40
2023-02-22T06:40:00.756Z,22.70
2023-02-22T06:42:37.023Z,18.20
2023-02-22T06:45:10.857Z,13.30
2023-02-22T06:47:43.867Z,11.20
2023-02-22T06:50:24.766Z,12.30
2023-02-22T06:55:30.567Z,19.10
2023-02-22T06:58:03.358Z,14.20
2023-02-22T07:00:35.902Z,10.50
2023-02-22T07:03:08.272Z,11.40
2023-02-22T07:05:40.886Z,11.40
2023-02-22T07:08:13.757Z,13.20
2023-02-22T07:10:46.042Z,13.30
2023-02-22T07:13:18.395Z,17.50
2023-02-22T07:15:53.299Z,18.60
2023-02-22T07:18:25.878Z,19.60
2023-02-22T07:20:58.664Z,11.40
2023-02-22T07:23:30.945Z,12.30
2023-02-22T07:26:05.359Z,13.00
2023-02-22T07:28:38.127Z,20.30
2023-02-22T07:31:10.356Z,15.20
2023-02-22T07:33:42.956Z,13.10
2023-02-22T07:36:17.998Z,11.30
2023-02-22T07:38:50.405Z,13.00
2023-02-22T07:41:22.960Z,16.20
2023-02-22T07:43:57.478Z,13.80
2023-02-22T07:46:29.913Z,11.20
2023-02-22T07:49:02.646Z,11.10
2023-02-22T07:51:34.828Z,11.00
2023-02-22T07:54:07.386Z,9.30
2023-02-22T07:56:45.060Z,8.90
2023-02-22T07:59:17.633Z,11.50
2023-02-22T08:01:52.102Z,9.30
2023-02-22T08:04:24.529Z,10.40
2023-02-22T08:06:56.710Z,9.50
2023-02-22T08:09:31.653Z,10.30
2023-02-22T08:12:04.108Z,13.30
2023-02-22T08:14:36.405Z,12.60
2023-02-22T08:17:09.615Z,11.20
2023-02-22T08:19:42.274Z,9.90
2023-02-22T08:22:16.980Z,12.80
2023-02-22T08:24:49.299Z,12.70
2023-02-22T08:27:26.483Z,14.10
2023-02-22T08:29:59.276Z,12.80
2023-02-22T08:32:32.056Z,21.50
2023-02-22T08:35:05.099Z,12.70
2023-02-22T08:37:37.299Z,14.90
2023-02-22T08:40:13.331Z,10.90
2023-02-22T08:42:47.044Z,9.20
2023-02-22T08:45:22.131Z,9.60
2023-02-22T08:47:56.137Z,6.20
2023-02-22T08:50:33.016Z,9.00
2023-02-22T08:53:06.509Z,9.40
2023-02-22T08:55:39.942Z,8.00
2023-02-22T08:58:14.018Z,6.00
2023-02-22T09:00:46.574Z,13.10
2023-02-22T09:03:19.368Z,6.10
2023-02-22T09:05:51.944Z,9.30
2023-02-22T09:08:24.401Z,16.70
2023-02-22T09:10:56.709Z,16.40
2023-02-22T09:13:28.903Z,11.50
2023-02-22T09:16:01.549Z,6.10
2023-02-22T09:18:43.736Z,6.20
2023-02-22T09:21:18.050Z,4.20
2023-02-22T09:23:50.916Z,47.60
2023-02-22T09:26:24.736Z,10.50
2023-02-22T09:28:57.345Z,7.30
2023-02-22T09:31:29.990Z,6.00
2023-02-22T09:34:04.232Z,5.00
2023-02-22T09:36:36.708Z,5.30
2023-02-22T09:39:09.484Z,6.30
2023-02-22T09:41:51.395Z,6.20
2023-02-22T09:44:30.210Z,4.30
2023-02-22T09:47:02.667Z,6.50
2023-02-22T09:49:40.215Z,15.40
2023-02-22T09:52:19.844Z,10.00
2023-02-22T09:54:55.619Z,7.60
2023-02-22T09:57:35.252Z,7.20
2023-02-22T10:00:16.951Z,17.80
2023-02-22T10:03:01.773Z,7.20
2023-02-22T10:05:39.904Z,4.90
2023-02-22T10:08:16.279Z,6.70
2023-02-22T10:10:56.280Z,5.40
2023-02-22T10:13:39.356Z,6.20
2023-02-22T10:16:18.181Z,14.70
2023-02-22T10:19:16.799Z,8.30
2023-02-22T10:22:01.639Z,5.20
2023-02-22T10:24:45.591Z,6.70
2023-02-22T10:27:22.240Z,6.30
2023-02-22T10:30:05.523Z,8.20
2023-02-22T10:32:48.063Z,9.90
2023-02-22T10:35:25.735Z,11.00
2023-02-22T10:38:01.124Z,8.10
2023-02-22T10:40:34.228Z,5.40
2023-02-22T10:43:09.117Z,7.10
2023-02-22T10:45:41.717Z,6.10
2023-02-22T10:48:21.798Z,5.60
2023-02-22T10:51:00.238Z,6.50
2023-02-22T10:53:36.407Z,7.20
2023-02-22T10:56:21.416Z,8.90
2023-02-22T10:58:57.642Z,7.50
2023-02-22T11:01:40.891Z,9.80
2023-02-22T11:04:17.000Z,6.10
2023-02-22T11:06:52.214Z,8.50
2023-02-22T11:09:29.090Z,5.20
2023-02-22T11:12:12.927Z,4.70
2023-02-22T11:14:45.097Z,10.00
2023-02-22T11:17:26.244Z,5.20
2023-02-22T11:19:58.767Z,5.20
2023-02-22T11:22:38.786Z,5.10
2023-02-22T11:25:23.719Z,6.00
2023-02-22T11:28:00.031Z,5.00
2023-02-22T11:30:36.865Z,9.60
2023-02-22T11:33:23.938Z,5.70
2023-02-22T11:35:59.377Z,4.00
2023-02-22T11:38:33.525Z,5.40
2023-02-22T11:41:17.537Z,4.40
2023-02-22T11:43:51.863Z,4.80
2023-02-22T11:46:30.318Z,4.90
2023-02-22T11:49:06.414Z,10.70
2023-02-22T11:51:58.970Z,6.10
2023-02-22T11:54:53.762Z,6.70
2023-02-22T11:57:48.861Z,7.30
2023-02-22T12:00:29.117Z,4.80
2023-02-22T12:03:29.609Z,5.50
2023-02-22T12:06:20.280Z,5.10
2023-02-22T12:09:04.678Z,6.00
2023-02-22T12:11:48.237Z,10.00
2023-02-22T12:14:26.705Z,4.30
2023-02-22T12:17:20.595Z,5.00
2023-02-22T12:19:58.830Z,4.10
2023-02-22T12:22:34.797Z,16.00
2023-02-22T12:25:19.544Z,6.00
2023-02-22T12:27:56.980Z,8.60
2023-02-22T12:30:32.504Z,8.70
2023-02-22T12:33:13.342Z,5.00
2023-02-22T12:38:27.906Z,6.00
2023-02-22T12:41:09.895Z,4.90
2023-02-22T12:43:47.703Z,5.00
2023-02-22T12:46:25.725Z,3.40
2023-02-22T12:49:06.256Z,4.40
2023-02-22T12:51:45.280Z,4.10
2023-02-22T12:54:23.133Z,4.30
2023-02-22T12:57:00.732Z,3.80
2023-02-22T12:59:39.236Z,3.80
2023-02-22T13:02:19.632Z,6.80
2023-02-22T13:04:52.798Z,4.20
2023-02-22T13:07:38.864Z,3.90
2023-02-22T13:10:54.798Z,5.70
2023-02-22T13:13:36.742Z,4.10
2023-02-22T13:16:23.177Z,5.40
2023-02-22T13:19:04.605Z,6.00
2023-02-22T13:21:47.674Z,5.90
2023-02-22T13:24:26.236Z,8.20
2023-02-22T13:27:02.941Z,6.20
2023-02-22T13:29:39.878Z,4.20
2023-02-22T13:32:31.052Z,5.00
2023-02-22T13:35:22.119Z,3.60
2023-02-22T13:38:30.450Z,4.20
2023-02-22T13:41:25.485Z,4.70
2023-02-22T13:44:27.074Z,5.10
2023-02-22T13:47:34.898Z,4.00
2023-02-22T13:50:35.732Z,4.80
2023-02-22T13:53:13.638Z,8.60
2023-02-22T13:55:54.378Z,5.10
2023-02-22T13:58:28.709Z,4.50
2023-02-22T14:01:02.962Z,4.60
2023-02-22T14:03:41.919Z,3.30
2023-02-22T14:06:43.115Z,6.20
2023-02-22T14:09:38.953Z,7.20
2023-02-22T14:12:11.491Z,9.50
2023-02-22T14:15:29.075Z,7.30
2023-02-22T14:18:04.177Z,6.80
2023-02-22T14:20:38.294Z,5.00
2023-02-22T14:23:40.986Z,4.30
2023-02-22T14:26:17.604Z,4.40
2023-02-22T14:28:57.737Z,10.30
2023-02-22T14:31:37.492Z,8.80
2023-02-22T14:34:18.458Z,6.00
2023-02-22T14:37:01.446Z,6.60
2023-02-22T14:39:38.463Z,4.80
2023-02-22T14:42:17.871Z,6.00
2023-02-22T14:45:00.819Z,5.30
2023-02-22T14:47:44.232Z,8.10
2023-02-22T14:50:24.850Z,5.10
2023-02-22T14:53:16.542Z,5.90
2023-02-22T14:55:53.236Z,6.10
2023-02-22T14:58:33.120Z,7.20
2023-02-22T15:01:31.249Z,5.70
2023-02-22T15:04:22.833Z,5.70
2023-02-22T15:06:59.891Z,9.20
2023-02-22T15:09:37.583Z,21.80
2023-02-22T15:12:31.404Z,13.00
2023-02-22T15:15:23.240Z,6.40
2023-02-22T15:17:59.870Z,7.30
2023-02-22T15:20:35.798Z,7.70
2023-02-22T15:23:12.041Z,8.90
2023-02-22T15:25:51.054Z,5.80
2023-02-22T15:28:27.292Z,4.70
2023-02-22T15:31:24.184Z,5.00
2023-02-22T15:34:00.018Z,6.30
2023-02-22T15:36:40.239Z,6.50
2023-02-22T15:39:25.693Z,9.50
2023-02-22T15:42:09.751Z,11.00
2023-02-22T15:44:48.949Z,9.60
2023-02-22T15:47:28.324Z,8.30
2023-02-22T15:50:25.143Z,15.40
2023-02-22T15:53:11.811Z,7.90
2023-02-22T15:56:07.191Z,6.50
2023-02-22T15:58:47.592Z,8.30
2023-02-22T16:01:30.336Z,8.90
2023-02-22T16:04:20.268Z,10.30
2023-02-22T16:09:38.510Z,7.10
2023-02-22T16:12:29.499Z,6.10
2023-02-22T16:15:15.826Z,6.10
2023-02-22T16:18:02.162Z,7.00
2023-02-22T16:20:39.718Z,6.20
2023-02-22T16:23:29.645Z,6.30
2023-02-22T16:26:26.609Z,5.80
2023-02-22T16:29:04.981Z,6.50
2023-02-22T16:31:41.441Z,15.20
2023-02-22T16:34:16.652Z,17.00
2023-02-22T16:36:52.805Z,20.50
2023-02-22T16:39:36.409Z,18.40
2023-02-22T16:42:10.611Z,14.00
2023-02-22T16:44:44.416Z,18.10
2023-02-22T16:47:21.996Z,18.20
2023-02-22T16:49:57.231Z,16.20
2023-02-22T16:52:30.592Z,15.80
2023-02-22T16:55:03.199Z,14.80
2023-02-22T16:57:36.032Z,16.50
2023-02-22T17:00:13.184Z,19.50
2023-02-22T17:02:48.271Z,24.40
2023-02-22T17:05:20.844Z,33.60
2023-02-22T17:07:53.805Z,35.00
2023-02-22T17:10:35.966Z,33.40
2023-02-22T17:13:23.812Z,48.30
2023-02-22T17:16:12.603Z,31.40
2023-02-22T17:18:55.678Z,25.30
2023-02-22T17:24:44.440Z,26.50
2023-02-22T17:27:18.717Z,29.10
2023-02-22T17:29:53.377Z,27.40
2023-02-22T17:32:25.697Z,24.80
2023-02-22T17:35:00.563Z,26.30
2023-02-22T17:37:33.994Z,27.60
2023-02-22T17:40:07.003Z,29.50
2023-02-22T17:42:40.258Z,31.20
2023-02-22T17:45:15.405Z,31.00
2023-02-22T17:47:51.238Z,28.90
2023-02-22T17:50:24.681Z,32.10
2023-02-22T17:52:57.034Z,33.40
2023-02-22T17:55:29.558Z,27.20
2023-02-22T17:58:02.196Z,25.10
2023-02-22T18:00:39.034Z,23.20
2023-02-22T18:03:14.229Z,22.80
2023-02-22T18:05:48.847Z,23.60
2023-02-22T18:08:23.747Z,24.50
2023-02-22T18:10:57.500Z,25.20
2023-02-22T18:13:30.359Z,25.20
2023-02-22T18:16:05.815Z,22.50
2023-02-22T18:18:38.584Z,20.90
2023-02-22T18:21:11.096Z,21.20
2023-02-22T18:23:44.949Z,22.10
2023-02-22T18:26:20.158Z,19.60
2023-02-22T18:28:53.655Z,21.20
2023-02-22T18:31:26.956Z,19.20
2023-02-22T18:34:02.227Z,18.30
2023-02-22T18:36:34.658Z,18.10
2023-02-22T18:39:11.721Z,19.70
2023-02-22T18:41:45.905Z,20.90
2023-02-22T18:44:18.792Z,18.00
2023-02-22T18:46:51.333Z,17.90
2023-02-22T18:49:27.126Z,17.70
2023-02-22T18:51:59.706Z,16.40
2023-02-22T18:54:32.213Z,18.40
2023-02-22T18:57:05.568Z,19.00
2023-02-22T18:59:38.502Z,18.90
2023-02-22T19:02:17.481Z,17.50
2023-02-22T19:04:50.105Z,22.40
2023-02-22T19:07:34.325Z,19.10
2023-02-22T19:10:07.624Z,21.30
2023-02-22T19:12:40.316Z,26.80
2023-02-22T19:15:13.422Z,23.30
2023-02-22T19:17:48.732Z,22.00
2023-02-22T19:20:21.384Z,21.80
2023-02-22T19:22:53.865Z,24.60
2023-02-22T19:25:29.149Z,25.20
2023-02-22T19:28:01.672Z,26.10
2023-02-22T19:30:34.269Z,25.30
2023-02-22T19:33:07.130Z,30.80
2023-02-22T19:35:48.181Z,26.20
2023-02-22T19:38:21.008Z,28.60
2023-02-22T19:40:55.602Z,45.50
2023-02-22T19:43:34.594Z,37.00
2023-02-22T19:46:11.716Z,37.00
2023-02-22T19:48:44.602Z,39.30
2023-02-22T19:51:18.588Z,35.10
2023-02-22T19:53:55.524Z,30.60
2023-02-22T19:56:31.472Z,31.30
2023-02-22T19:59:09.651Z,28.90
2023-02-22T20:01:44.857Z,29.60
2023-02-22T20:04:23.091Z,30.70
2023-02-22T20:06:59.079Z,34.00
2023-02-22T20:09:37.893Z,31.80
2023-02-22T20:12:12.928Z,30.40
2023-02-22T20:14:46.460Z,31.60
2023-02-22T20:17:21.381Z,32.20
2023-02-22T20:19:59.306Z,33.70
2023-02-22T20:22:31.751Z,29.70
2023-02-22T20:25:05.368Z,32.20
2023-02-22T20:27:38.882Z,34.60
2023-02-22T20:30:18.158Z,41.30
2023-02-22T20:32:59.950Z,45.70
2023-02-22T20:35:34.130Z,46.10
2023-02-22T20:38:13.937Z,44.80
2023-02-22T20:40:46.957Z,44.60
2023-02-22T20:43:23.185Z,47.50
2023-02-22T20:45:56.393Z,45.30
2023-02-22T20:48:28.982Z,46.60
2023-02-22T20:51:08.341Z,48.60
2023-02-22T20:53:42.108Z,53.30
2023-02-22T20:56:17.948Z,56.10
2023-02-22T20:58:50.463Z,59.10
2023-02-22T21:01:23.897Z,53.20
2023-02-22T21:04:02.432Z,53.50
2023-02-22T21:06:35.695Z,56.50
2023-02-22T21:09:12.840Z,53.60
2023-02-22T21:11:46.731Z,58.30
2023-02-22T21:14:20.217Z,58.00
2023-02-22T21:16:54.040Z,61.60
2023-02-22T21:19:33.406Z,66.10
2023-02-22T21:22:08.503Z,66.80
2023-02-22T21:24:40.901Z,63.00
2023-02-22T21:27:13.299Z,58.70
2023-02-22T21:29:45.689Z,64.10
2023-02-22T21:32:19.319Z,60.10
2023-02-22T21:34:54.318Z,56.80
2023-02-22T21:37:26.653Z,51.20
2023-02-22T21:39:59.273Z,54.40
2023-02-22T21:42:31.677Z,58.50
2023-02-22T21:45:14.209Z,60.10
2023-02-22T21:47:47.510Z,72.10
2023-02-22T21:50:25.552Z,65.30
2023-02-22T21:52:58.120Z,60.70
2023-02-22T21:55:31.089Z,57.60
2023-02-22T21:58:03.668Z,56.40
2023-02-22T22:00:39.277Z,54.10
2023-02-22T22:03:20.591Z,51.30
2023-02-22T22:05:53.256Z,47.90
2023-02-22T22:08:27.948Z,43.60
2023-02-22T22:11:03.542Z,46.10
2023-02-22T22:13:42.072Z,50.20
2023-02-22T22:16:16.523Z,47.20
2023-02-22T22:18:55.706Z,43.20
2023-02-22T22:21:28.896Z,48.90
2023-02-22T22:24:06.609Z,49.00
2023-02-22T22:26:48.555Z,42.00
2023-02-22T22:29:23.688Z,39.00
2023-02-22T22:31:56.415Z,36.90
2023-02-22T22:34:34.118Z,36.60
2023-02-22T22:37:06.664Z,31.20
2023-02-22T22:39:42.601Z,33.50
2023-02-22T22:42:15.507Z,27.50
2023-02-22T22:44:53.849Z,24.40
2023-02-22T22:47:30.800Z,24.20
2023-02-22T22:50:03.327Z,24.10
2023-02-22T22:52:40.268Z,22.50
2023-02-22T22:55:13.155Z,22.10
2023-02-22T22:57:45.523Z,21.00
2023-02-22T23:00:31.612Z,21.50
2023-02-22T23:03:05.809Z,20.50
2023-02-22T23:05:43.496Z,20.20
2023-02-22T23:08:18.855Z,20.20
2023-02-22T23:10:51.698Z,19.50
2023-02-22T23:13:25.595Z,20.20
2023-02-22T23:15:57.948Z,20.10
2023-02-22T23:18:36.434Z,22.80
2023-02-22T23:21:12.960Z,20.60
2023-02-22T23:23:51.780Z,21.40
2023-02-22T23:26:28.576Z,22.80
2023-02-22T23:29:04.770Z,20.30
2023-02-22T23:31:39.956Z,22.50
2023-02-22T23:34:12.752Z,21.90
2023-02-22T23:36:45.358Z,20.60
2023-02-22T23:39:21.704Z,19.90
2023-02-22T23:42:01.177Z,17.60
2023-02-22T23:44:34.208Z,17.50
2023-02-22T23:47:10.684Z,17.50
2023-02-22T23:49:46.017Z,16.20
2023-02-22T23:52:25.038Z,15.90
2023-02-22T23:55:05.618Z,16.00
2023-02-22T23:57:42.973Z,15.00
